Time;durP1;ratioP1;P1;durP2;ratioP2;P2;SDS_P1;SDS_P2;PMS_P1;PMS_P2;Temp;Humidity;BMP_temperature;BMP_pressure;BME280_temperature;BME280_humidity;BME280_pressure;Samples;Min_cycle;Max_cycle;Signal;HPM_P1;HPM_P2
2021/10/08 00:01:26;;;;;;;30.17;16.00;;;;;;;5.25;73.38;102233.59;5024236;28;20060;-59
2021/10/08 00:04:12;;;;;;;32.17;16.88;;;;;;;5.18;73.09;102236.72;5024326;28;20052;-59
2021/10/08 00:06:58;;;;;;;25.55;16.30;;;;;;;5.09;73.52;102226.94;5023489;28;20034;-59
2021/10/08 00:09:44;;;;;;;28.33;16.00;;;;;;;5.11;73.21;102227.88;5023783;28;20200;-59
2021/10/08 00:12:30;;;;;;;23.77;16.17;;;;;;;5.10;73.83;102230.38;5024724;28;20417;-59
2021/10/08 00:15:16;;;;;;;25.38;15.60;;;;;;;4.98;73.71;102223.03;5022384;28;20034;-59
2021/10/08 00:18:01;;;;;;;31.02;15.80;;;;;;;5.06;73.82;102233.63;5033532;28;20033;-59
2021/10/08 00:20:48;;;;;;;24.38;16.08;;;;;;;4.57;73.25;102178.50;5050763;28;20258;-59
2021/10/08 00:23:35;;;;;;;22.95;15.68;;;;;;;4.96;74.01;102240.94;5040027;28;20029;-59
2021/10/08 00:26:21;;;;;;;24.23;15.18;;;;;;;4.92;73.87;102238.19;5009510;28;20036;-59
2021/10/08 00:29:08;;;;;;;25.52;16.35;;;;;;;4.76;74.06;102234.06;5026013;28;20384;-59
2021/10/08 00:31:54;;;;;;;25.83;16.00;;;;;;;4.78;73.94;102235.88;5025221;28;20026;-59
2021/10/08 00:34:40;;;;;;;23.10;14.85;;;;;;;4.77;74.11;102239.25;5024312;28;20029;-59
2021/10/08 00:37:26;;;;;;;22.33;15.52;;;;;;;4.79;74.08;102241.91;5011040;28;20090;-59
2021/10/08 00:40:12;;;;;;;26.00;16.20;;;;;;;4.59;74.08;102230.75;5024110;28;20072;-59
2021/10/08 00:42:58;;;;;;;27.45;15.70;;;;;;;4.75;74.15;102243.47;5023687;28;20051;-59
2021/10/08 00:45:44;;;;;;;25.02;16.50;;;;;;;4.71;73.92;102239.00;5024424;28;20053;-59
2021/10/08 00:48:30;;;;;;;23.05;15.38;;;;;;;4.66;74.51;102245.63;5022952;28;20088;-59
2021/10/08 00:51:17;;;;;;;26.45;16.45;;;;;;;4.64;73.99;102232.72;5025416;28;20334;-59
2021/10/08 00:54:03;;;;;;;25.02;16.58;;;;;;;4.58;74.65;102244.41;5026906;28;20014;-58
2021/10/08 00:56:49;;;;;;;24.55;16.15;;;;;;;4.57;74.39;102242.66;5022182;28;20045;-58
2021/10/08 00:59:36;;;;;;;20.38;15.88;;;;;;;4.62;74.69;102244.59;5023539;28;20014;-58
2021/10/08 01:02:24;;;;;;;24.65;16.20;;;;;;;4.32;73.91;102190.25;5024759;28;20021;-58
2021/10/08 01:05:11;;;;;;;25.35;15.82;;;;;;;4.64;74.32;102248.09;5023777;28;20029;-58
2021/10/08 01:07:57;;;;;;;28.73;15.80;;;;;;;4.58;74.08;102242.72;5024178;28;20033;-58
2021/10/08 01:10:45;;;;;;;27.85;15.77;;;;;;;4.64;74.57;102242.97;5023004;28;20028;-58
2021/10/08 01:13:30;;;;;;;23.02;15.38;;;;;;;4.60;74.53;102242.78;5024670;28;20330;-58
2021/10/08 01:16:23;;;;;;;26.73;15.93;;;;;;;4.66;73.72;102243.06;5023179;28;20105;-58
2021/10/08 01:19:09;;;;;;;;;;;;;;;4.53;74.58;102243.31;5025499;28;20076;-58
2021/10/08 01:21:55;;;;;;;26.80;15.93;;;;;;;4.60;74.33;102251.38;5024383;28;20162;-60
2021/10/08 01:24:42;;;;;;;27.30;15.10;;;;;;;4.54;74.19;102248.50;5022704;28;20271;-57
2021/10/08 01:27:27;;;;;;;27.92;16.73;;;;;;;4.57;74.67;102253.78;5023617;28;20079;-58
2021/10/08 01:30:13;;;;;;;26.63;17.00;;;;;;;4.54;74.79;102255.34;5025452;28;20029;-58
2021/10/08 01:32:59;;;;;;;25.25;16.52;;;;;;;4.44;74.41;102249.78;5023791;28;20043;-58
2021/10/08 01:35:45;;;;;;;25.60;17.50;;;;;;;4.43;75.09;102254.84;5022759;28;20101;-58
2021/10/08 01:38:31;;;;;;;25.23;16.25;;;;;;;4.34;75.13;102249.31;5022526;28;20327;-58
2021/10/08 01:41:17;;;;;;;29.17;16.92;;;;;;;4.38;75.28;102258.91;5027880;28;20052;-58
2021/10/08 01:44:03;;;;;;;25.30;16.30;;;;;;;4.39;74.62;102245.25;5023200;28;20033;-58
2021/10/08 01:46:50;;;;;;;26.85;16.23;;;;;;;4.38;75.05;102248.66;5022628;28;20306;-58
2021/10/08 01:49:36;;;;;;;24.20;15.98;;;;;;;4.39;74.34;102234.97;5023495;28;20029;-58
2021/10/08 01:52:22;;;;;;;28.75;16.75;;;;;;;4.42;74.72;102240.28;5015238;28;20030;-58
2021/10/08 01:55:08;;;;;;;33.10;16.40;;;;;;;4.42;74.20;102237.72;5023177;28;20029;-58
2021/10/08 01:57:54;;;;;;;33.30;15.93;;;;;;;4.43;74.25;102242.00;5021063;28;20406;-59
2021/10/08 02:00:40;;;;;;;30.02;15.93;;;;;;;4.35;74.94;102239.13;5023240;28;20030;-58
2021/10/08 02:03:26;;;;;;;29.80;15.63;;;;;;;4.25;75.01;102240.38;5021386;28;20026;-58
2021/10/08 02:06:13;;;;;;;26.85;15.25;;;;;;;4.28;73.97;102243.06;5005804;28;20307;-58
2021/10/08 02:09:00;;;;;;;28.13;15.93;;;;;;;4.22;74.01;102234.22;5023565;28;20049;-58
2021/10/08 02:11:45;;;;;;;23.45;14.57;;;;;;;4.27;74.31;102233.63;5023091;28;20140;-58
2021/10/08 02:14:31;;;;;;;32.50;14.95;;;;;;;4.22;74.24;102237.69;5023617;28;20018;-59
2021/10/08 02:17:17;;;;;;;26.85;16.23;;;;;;;4.12;74.53;102232.94;5034927;28;20036;-59
2021/10/08 02:20:04;;;;;;;23.65;15.30;;;;;;;4.07;75.15;102244.66;5022264;28;20218;-60
2021/10/08 02:22:50;;;;;;;24.25;15.32;;;;;;;4.04;74.78;102232.56;5022385;28;20045;-59
2021/10/08 02:25:36;;;;;;;24.58;15.45;;;;;;;4.09;74.04;102235.34;5022624;28;20041;-59
2021/10/08 02:28:22;;;;;;;28.35;15.50;;;;;;;4.19;74.90;102240.09;5021102;28;20026;-57
2021/10/08 02:31:09;;;;;;;23.90;14.77;;;;;;;4.17;74.23;102228.88;5024025;28;20214;-57
2021/10/08 02:33:55;;;;;;;25.73;15.85;;;;;;;4.22;74.54;102229.97;5035800;28;20022;-62
2021/10/08 02:36:41;;;;;;;29.63;15.05;;;;;;;4.19;74.62;102224.72;5024443;28;20018;-58
2021/10/08 02:39:27;;;;;;;25.30;15.35;;;;;;;4.15;73.98;102221.13;5032334;28;20057;-58
2021/10/08 02:42:13;;;;;;;25.45;15.70;;;;;;;4.21;74.48;102223.09;5023017;28;20038;-59
2021/10/08 02:44:59;;;;;;;27.00;14.85;;;;;;;4.21;73.91;102223.09;5024684;28;20034;-59
2021/10/08 02:47:44;;;;;;;31.65;15.43;;;;;;;4.19;74.21;102221.25;5034305;28;20036;-58
2021/10/08 02:50:31;;;;;;;27.23;15.45;;;;;;;4.14;74.88;102229.59;5022281;28;20353;-59
2021/10/08 02:53:16;;;;;;;24.45;15.10;;;;;;;4.12;74.26;102226.09;5018365;28;20037;-58
2021/10/08 02:56:04;;;;;;;26.88;15.30;;;;;;;4.07;73.98;102222.44;5021987;28;20050;-58
2021/10/08 02:58:50;;;;;;;27.50;16.23;;;;;;;4.13;73.97;102230.44;5022345;28;20060;-59
2021/10/08 03:01:36;;;;;;;32.25;16.83;;;;;;;4.06;74.69;102224.94;5023781;28;20049;-59
2021/10/08 03:04:22;;;;;;;31.00;16.35;;;;;;;4.00;74.34;102233.22;5021735;28;20022;-59
2021/10/08 03:07:09;;;;;;;22.92;15.07;;;;;;;3.97;75.16;102231.38;5025581;28;20037;-59
2021/10/08 03:09:54;;;;;;;27.10;15.95;;;;;;;3.88;75.10;102235.22;5026263;28;20052;-59
2021/10/08 03:12:41;;;;;;;29.40;15.82;;;;;;;3.79;75.20;102221.16;5025508;28;20022;-59
2021/10/08 03:15:27;;;;;;;29.00;16.35;;;;;;;3.85;75.08;102240.19;5025238;28;20025;-58
2021/10/08 03:18:13;;;;;;;31.00;17.05;;;;;;;3.84;75.83;102238.44;5027267;28;20330;-58
2021/10/08 03:20:59;;;;;;;24.50;16.27;;;;;;;3.84;74.87;102235.88;5024442;28;20133;-59
2021/10/08 03:23:44;;;;;;;32.20;16.70;;;;;;;3.88;75.13;102236.09;5025656;28;20280;-57
2021/10/08 03:26:30;;;;;;;30.15;18.00;;;;;;;3.90;74.69;102239.59;5038201;28;20302;-57
2021/10/08 03:29:16;;;;;;;26.75;16.20;;;;;;;3.92;74.61;102247.34;5025841;28;20030;-58
2021/10/08 03:32:03;;;;;;;29.00;16.70;;;;;;;3.87;75.37;102241.16;5026287;28;20380;-59
2021/10/08 03:34:48;;;;;;;26.13;16.05;;;;;;;3.89;75.08;102248.13;5024704;28;20022;-57
2021/10/08 03:37:49;;;;;;;24.90;16.50;;;;;;;3.89;75.06;102247.22;5038177;28;20105;-59
2021/10/08 03:40:35;;;;;;;26.00;16.50;;;;;;;3.93;75.11;102251.69;5025922;28;20392;-58
2021/10/08 03:43:21;;;;;;;26.70;16.75;;;;;;;3.93;75.25;102251.69;5025156;28;20054;-59
2021/10/08 03:46:09;;;;;;;34.05;20.27;;;;;;;3.87;74.36;102256.53;5021338;28;20097;-58
2021/10/08 03:51:53;;;;;;;23.17;14.95;;;;;;;3.79;75.61;102256.13;5011040;28;20034;-58
2021/10/08 03:54:39;;;;;;;29.58;16.85;;;;;;;3.81;74.94;102254.56;5024574;28;20018;-58
2021/10/08 03:57:25;;;;;;;26.50;17.13;;;;;;;3.79;74.92;102259.59;5024738;28;20096;-59
2021/10/08 04:00:11;;;;;;;32.17;16.33;;;;;;;3.86;75.01;102253.06;5024902;28;20080;-59
2021/10/08 04:02:57;;;;;;;33.55;17.50;;;;;;;3.85;74.64;102245.31;5036914;28;20046;-59
2021/10/08 04:05:43;;;;;;;25.85;16.42;;;;;;;3.87;75.18;102248.84;5050334;28;20037;-58
2021/10/08 04:08:30;;;;;;;26.63;17.20;;;;;;;3.79;75.68;102245.88;5025851;28;20050;-59
2021/10/08 04:11:15;;;;;;;34.03;16.42;;;;;;;3.59;75.13;102198.81;5025331;28;20026;-59
2021/10/08 04:14:02;;;;;;;32.58;18.17;;;;;;;3.79;75.67;102251.91;5023782;28;20026;-59
2021/10/08 04:16:48;;;;;;;46.80;19.50;;;;;;;3.74;75.23;102247.38;5023744;28;20148;-59
2021/10/08 04:19:33;;;;;;;40.05;20.10;;;;;;;3.78;75.70;102246.72;5023919;28;20196;-58
2021/10/08 04:22:19;;;;;;;34.85;19.02;;;;;;;3.78;75.45;102254.41;5015827;28;20026;-59
2021/10/08 04:25:06;;;;;;;36.70;18.75;;;;;;;3.81;75.80;102254.56;5024145;28;20048;-60
2021/10/08 04:27:52;;;;;;;45.10;19.25;;;;;;;3.75;75.88;102261.94;5028254;28;20068;-59
2021/10/08 04:30:38;;;;;;;31.90;18.33;;;;;;;3.80;76.01;102255.34;5025050;28;20045;-59
2021/10/08 04:33:26;;;;;;;37.88;18.83;;;;;;;3.34;76.26;102195.06;5022561;28;20092;-59
2021/10/08 04:36:12;;;;;;;34.20;18.77;;;;;;;3.79;76.09;102266.41;5024411;28;20053;-59
2021/10/08 04:38:58;;;;;;;31.60;18.92;;;;;;;3.85;75.38;102261.59;5023538;28;20408;-60
2021/10/08 04:41:44;;;;;;;30.30;18.42;;;;;;;3.68;74.82;102222.31;5023033;28;20050;-59
2021/10/08 04:44:32;;;;;;;34.92;19.73;;;;;;;3.88;76.21;102263.41;5021960;28;20030;-59
2021/10/08 04:47:18;;;;;;;37.55;19.48;;;;;;;3.93;76.06;102260.28;5019516;28;20326;-61
2021/10/08 04:50:04;;;;;;;37.33;18.75;;;;;;;3.95;75.68;102247.53;5020169;28;20108;-58
2021/10/08 04:52:50;;;;;;;44.65;20.67;;;;;;;4.00;76.31;102256.28;5020876;28;20026;-58
2021/10/08 04:55:36;;;;;;;35.55;19.30;;;;;;;4.04;75.45;102257.34;5024575;28;20029;-58
2021/10/08 04:58:22;;;;;;;45.65;19.70;;;;;;;4.10;75.99;102258.47;5022989;28;20037;-59
2021/10/08 05:01:08;;;;;;;43.20;20.73;;;;;;;4.14;75.88;102246.69;5024545;28;20338;-59
2021/10/08 05:03:54;;;;;;;44.00;21.83;;;;;;;4.24;75.62;102255.69;5023347;28;20326;-57
2021/10/08 05:06:40;;;;;;;45.45;20.80;;;;;;;4.30;76.19;102256.88;5020770;28;20022;-57
2021/10/08 05:09:26;;;;;;;36.53;19.23;;;;;;;4.39;75.27;102260.63;5020934;28;20080;-58
2021/10/08 05:12:12;;;;;;;40.58;20.85;;;;;;;4.45;75.92;102256.69;5020397;28;20069;-59
2021/10/08 05:14:57;;;;;;;47.33;20.88;;;;;;;4.48;75.16;102253.38;5023456;28;20026;-59
2021/10/08 05:17:43;;;;;;;44.88;21.42;;;;;;;4.56;75.34;102254.59;5020402;28;20322;-59
2021/10/08 05:20:30;;;;;;;36.85;19.58;;;;;;;4.72;75.08;102261.28;5021450;28;20030;-60
2021/10/08 05:23:16;;;;;;;40.80;20.20;;;;;;;4.78;74.83;102261.56;5017998;28;20034;-61
2021/10/08 05:26:02;;;;;;;62.88;20.85;;;;;;;4.83;75.65;102269.44;5006779;28;20085;-60
2021/10/08 05:28:48;;;;;;;60.25;22.67;;;;;;;4.96;75.79;102258.03;5021362;28;20018;-60
2021/10/08 05:31:34;;;;;;;49.55;21.40;;;;;;;5.06;74.58;102259.31;4996259;28;20042;-60
2021/10/08 05:34:20;;;;;;;58.55;21.77;;;;;;;5.18;74.86;102267.56;5020736;28;20101;-60
2021/10/08 05:37:06;;;;;;;48.20;20.90;;;;;;;5.31;74.34;102264.69;5022393;28;20036;-59
2021/10/08 05:39:51;;;;;;;46.33;21.55;;;;;;;5.42;74.00;102264.28;5021642;28;20028;-60
2021/10/08 05:42:37;;;;;;;49.75;21.42;;;;;;;5.27;74.46;102218.25;5021819;28;20046;-61
2021/10/08 05:45:23;;;;;;;48.13;20.10;;;;;;;5.63;73.74;102257.44;5021921;28;20030;-61
2021/10/08 05:48:09;;;;;;;35.88;20.73;;;;;;;5.74;73.38;102254.41;5019814;28;20043;-61
2021/10/08 05:50:55;;;;;;;44.17;22.15;;;;;;;5.89;73.36;102260.19;5020490;28;20033;-62
2021/10/08 05:53:41;;;;;;;34.45;18.88;;;;;;;6.03;72.72;102256.47;5020978;28;20026;-60
2021/10/08 05:56:27;;;;;;;39.65;21.83;;;;;;;6.16;72.90;102256.97;5020626;28;20026;-60
2021/10/08 05:59:13;;;;;;;43.75;20.52;;;;;;;6.23;72.20;102246.09;5011347;28;20109;-60
2021/10/08 06:01:58;;;;;;;33.13;21.00;;;;;;;6.31;71.03;102239.50;5017231;28;20208;-60
2021/10/08 06:04:44;;;;;;;38.08;20.42;;;;;;;6.53;71.27;102251.50;5019280;28;20026;-60
2021/10/08 06:07:30;;;;;;;32.58;20.52;;;;;;;6.67;70.31;102253.69;5019676;28;20041;-60
2021/10/08 06:10:16;;;;;;;38.15;20.05;;;;;;;6.80;70.17;102260.16;5018721;28;20029;-60
2021/10/08 06:13:02;;;;;;;37.60;19.00;;;;;;;6.89;69.70;102256.22;5020324;28;20029;-60
2021/10/08 06:15:48;;;;;;;27.42;18.80;;;;;;;6.99;67.79;102252.28;5024894;28;20222;-60
2021/10/08 06:18:33;;;;;;;30.15;19.17;;;;;;;7.15;68.13;102252.81;5024198;28;20076;-58
2021/10/08 06:21:19;;;;;;;34.40;19.02;;;;;;;7.26;67.62;102257.50;5022865;28;20065;-60
2021/10/08 06:24:05;;;;;;;33.58;18.70;;;;;;;7.40;65.79;102251.94;5022197;28;20385;-61
2021/10/08 06:26:51;;;;;;;30.17;17.08;;;;;;;7.84;65.43;102260.25;5023050;28;20045;-60
2021/10/08 06:29:37;;;;;;;30.02;18.35;;;;;;;8.35;63.14;102242.84;5022468;28;20315;-60
2021/10/08 06:32:23;;;;;;;31.55;16.80;;;;;;;8.80;62.31;102253.63;5023065;28;20322;-60
2021/10/08 06:35:09;;;;;;;27.65;17.77;;;;;;;9.36;59.70;102233.53;5021639;28;20021;-60
2021/10/08 06:37:54;;;;;;;30.70;17.63;;;;;;;9.73;57.42;102245.63;5017747;28;20382;-60
2021/10/08 06:40:41;;;;;;;27.77;17.70;;;;;;;9.89;58.37;102252.06;5023903;28;20094;-61
2021/10/08 06:43:27;;;;;;;29.40;17.40;;;;;;;9.63;57.52;102254.03;5026425;28;20045;-59
2021/10/08 06:46:12;;;;;;;29.02;15.95;;;;;;;9.65;57.53;102257.53;5025154;28;20036;-60
2021/10/08 06:48:58;;;;;;;20.95;14.82;;;;;;;9.83;57.83;102257.97;5023343;28;20029;-61
2021/10/08 06:51:44;;;;;;;24.77;16.00;;;;;;;9.81;56.49;102240.66;5022413;28;20029;-60
2021/10/08 06:54:30;;;;;;;23.17;15.32;;;;;;;9.91;57.02;102247.78;5010691;28;20015;-60
2021/10/08 06:57:16;;;;;;;30.27;16.00;;;;;;;9.90;57.25;102245.16;5027409;28;20097;-61
2021/10/08 07:00:03;;;;;;;20.48;14.73;;;;;;;9.69;56.90;102194.69;5026436;28;20214;-61
2021/10/08 07:02:51;;;;;;;21.58;14.25;;;;;;;9.82;56.54;102201.88;5025813;28;20048;-60
2021/10/08 07:05:37;;;;;;;22.85;14.02;;;;;;;10.23;57.51;102250.22;5037804;28;20112;-60
2021/10/08 07:08:23;;;;;;;20.95;13.30;;;;;;;10.18;55.67;102252.72;5033935;28;20395;-60
2021/10/08 07:11:09;;;;;;;24.65;12.38;;;;;;;10.25;55.60;102245.97;5037014;28;20052;-60
2021/10/08 07:13:55;;;;;;;17.88;11.50;;;;;;;10.33;55.21;102246.09;5021400;28;20033;-60
2021/10/08 07:16:41;;;;;;;18.13;10.80;;;;;;;10.36;53.47;102239.31;5008468;28;20233;-61
2021/10/08 07:19:28;;;;;;;124.28;19.10;;;;;;;10.56;54.23;102248.34;5016005;28;20129;-60
2021/10/08 07:22:13;;;;;;;31.60;12.90;;;;;;;10.75;53.82;102249.59;5026640;28;20022;-61
2021/10/08 07:24:59;;;;;;;23.63;12.07;;;;;;;10.88;53.36;102256.75;5027087;28;20030;-61
2021/10/08 07:27:46;;;;;;;20.60;11.40;;;;;;;10.88;53.69;102249.84;5026056;28;20056;-61
2021/10/08 07:30:32;;;;;;;24.83;12.18;;;;;;;10.71;52.25;102238.28;5025868;28;20049;-60
2021/10/08 07:33:18;;;;;;;15.60;10.65;;;;;;;10.88;52.63;102257.63;5021172;28;20032;-61
2021/10/08 07:36:04;;;;;;;17.23;10.55;;;;;;;10.95;52.49;102260.34;5025567;28;20045;-61
2021/10/08 07:38:50;;;;;;;12.93;10.38;;;;;;;10.94;51.91;102253.41;5025686;28;20097;-61
2021/10/08 07:41:36;;;;;;;15.82;11.38;;;;;;;10.95;51.56;102262.94;5049685;28;20046;-61
2021/10/08 07:44:22;;;;;;;17.95;10.77;;;;;;;11.00;50.49;102261.28;5024952;28;20022;-61
2021/10/08 07:47:08;;;;;;;14.27;9.65;;;;;;;11.04;49.74;102261.41;5024800;28;20037;-62
2021/10/08 07:49:53;;;;;;;13.48;10.10;;;;;;;11.02;51.18;102262.19;5026041;28;20025;-62
2021/10/08 07:52:40;;;;;;;16.92;10.65;;;;;;;11.07;51.62;102264.88;5024081;28;20034;-61
2021/10/08 07:55:26;;;;;;;19.77;11.27;;;;;;;10.99;50.51;102264.75;5024851;28;20022;-61
2021/10/08 07:58:12;;;;;;;15.60;11.50;;;;;;;11.00;51.16;102262.19;5025135;28;20033;-60
2021/10/08 08:01:00;;;;;;;13.95;10.68;;;;;;;11.05;51.20;102257.06;5028506;28;20028;-61
2021/10/08 08:03:45;;;;;;;14.77;10.95;;;;;;;11.10;49.75;102263.22;5025774;28;20030;-61
2021/10/08 08:06:31;;;;;;;17.77;10.85;;;;;;;11.04;48.40;102258.81;5025768;28;20025;-59
2021/10/08 08:09:17;;;;;;;22.65;11.45;;;;;;;11.09;49.39;102265.75;5025103;28;20054;-60
2021/10/08 08:12:03;;;;;;;12.05;9.07;;;;;;;11.13;48.38;102265.88;5024632;28;20018;-59
2021/10/08 08:14:49;;;;;;;16.35;9.75;;;;;;;11.16;46.79;102263.31;5026687;28;20350;-60
2021/10/08 08:17:36;;;;;;;19.58;10.00;;;;;;;11.25;47.89;102264.34;5025824;28;20022;-60
2021/10/08 08:20:23;;;;;;;18.88;9.43;;;;;;;11.07;47.59;102216.47;5023738;28;20097;-60
2021/10/08 08:23:09;;;;;;;14.25;8.32;;;;;;;11.52;47.66;102262.19;5025017;28;20018;-60
2021/10/08 08:25:55;;;;;;;16.50;8.82;;;;;;;11.89;45.76;102257.59;5025510;28;20033;-60
2021/10/08 08:28:41;;;;;;;16.42;9.30;;;;;;;12.54;44.55;102257.59;5025251;28;20076;-61
2021/10/08 08:31:27;;;;;;;15.10;8.32;;;;;;;13.18;43.41;102256.56;5023822;28;20438;-62
2021/10/08 08:34:13;;;;;;;12.48;8.98;;;;;;;13.76;41.12;102251.00;5024517;28;20276;-61
2021/10/08 08:36:59;;;;;;;14.50;8.82;;;;;;;14.33;40.88;102257.41;5025370;28;20061;-61
2021/10/08 08:39:45;;;;;;;17.75;8.70;;;;;;;14.95;40.18;102254.16;5024440;28;20022;-61
2021/10/08 08:42:31;;;;;;;22.38;8.07;;;;;;;15.44;37.16;102254.22;5025862;28;20234;-62
2021/10/08 08:45:17;;;;;;;13.65;7.35;;;;;;;16.17;37.43;102254.13;5023954;28;20269;-61
2021/10/08 08:48:07;;;;;;;13.57;8.25;;;;;;;16.78;36.50;102202.41;5025485;28;20064;-62
2021/10/08 08:50:53;;;;;;;14.40;8.45;;;;;;;16.74;34.29;102240.78;5023183;28;20258;-61
2021/10/08 08:53:39;;;;;;;9.23;7.90;;;;;;;17.32;34.88;102251.78;5025190;28;20029;-61
2021/10/08 08:56:25;;;;;;;11.50;7.30;;;;;;;16.88;32.74;102251.22;5023884;28;20033;-61
2021/10/08 08:59:13;;;;;;;11.07;6.80;;;;;;;17.07;33.06;102210.97;5024594;28;20223;-60
2021/10/08 09:02:01;;;;;;;11.23;7.47;;;;;;;17.69;34.12;102244.47;5023732;28;20025;-60
2021/10/08 09:04:47;;;;;;;13.45;7.43;;;;;;;18.52;33.10;102234.78;5025482;28;20053;-61
2021/10/08 09:07:35;;;;;;;16.85;8.25;;;;;;;18.33;32.25;102191.31;5024683;28;20021;-60
2021/10/08 09:10:24;;;;;;;12.38;7.53;;;;;;;17.92;32.35;102194.44;5009513;28;20080;-62
2021/10/08 09:13:10;;;;;;;13.07;7.57;;;;;;;18.11;33.17;102229.19;5023941;28;20033;-61
2021/10/08 09:15:58;;;;;;;11.57;7.53;;;;;;;17.91;33.00;102229.44;5024416;28;20036;-62
2021/10/08 09:18:50;;;;;;;15.43;8.57;;;;;;;16.60;32.18;102237.38;5024456;28;20036;-60
2021/10/08 09:21:35;;;;;;;;;;;;;;;15.87;32.53;102238.50;5023088;28;20315;-61
2021/10/08 09:24:22;;;;;;;10.00;7.22;;;;;;;15.67;35.11;102229.81;5019668;28;19909;-61
2021/10/08 09:27:13;;;;;;;10.70;7.70;;;;;;;15.28;35.17;102195.91;5017557;28;20666;-61
2021/10/08 09:29:59;;;;;;;16.38;7.93;;;;;;;15.19;36.17;102224.59;5020417;28;20076;-60
2021/10/08 09:32:48;;;;;;;10.88;7.57;;;;;;;15.07;36.75;102227.22;5021478;28;20022;-61
2021/10/08 09:35:35;;;;;;;14.55;8.07;;;;;;;14.85;36.85;102227.19;5018504;28;20030;-60
2021/10/08 09:38:21;;;;;;;11.70;7.55;;;;;;;14.61;36.04;102227.97;5019432;28;20030;-60
2021/10/08 09:41:07;;;;;;;16.13;7.82;;;;;;;14.48;37.13;102222.72;5021281;28;20026;-59
2021/10/08 09:43:53;;;;;;;12.65;7.78;;;;;;;14.30;36.35;102218.28;5018080;28;20029;-61
2021/10/08 09:46:39;;;;;;;19.13;8.25;;;;;;;14.31;37.17;102217.44;5022794;28;20026;-61
2021/10/08 09:49:25;;;;;;;11.75;7.88;;;;;;;14.18;37.39;102213.03;5020461;28;20026;-61
2021/10/08 09:52:27;;;;;;;12.23;7.90;;;;;;;14.05;36.49;102206.00;5019008;28;20100;-61
2021/10/08 09:55:12;;;;;;;12.45;7.82;;;;;;;13.98;37.54;102206.00;5024981;28;20092;-61
2021/10/08 09:57:58;;;;;;;14.52;8.10;;;;;;;13.93;36.48;102205.09;5024130;28;20057;-60
2021/10/08 10:01:01;;;;;;;12.52;7.50;;;;;;;13.64;35.52;102155.44;5022578;28;20215;-60
2021/10/08 10:03:54;;;;;;;14.48;8.15;;;;;;;13.71;36.50;102153.72;5021477;28;20034;-60
2021/10/08 10:06:42;;;;;;;14.98;8.02;;;;;;;13.94;37.50;102203.38;5024101;28;20026;-60
2021/10/08 10:09:28;;;;;;;13.10;8.18;;;;;;;13.93;37.29;102204.22;5023517;28;20331;-60
2021/10/08 10:12:16;;;;;;;9.80;8.05;;;;;;;13.78;36.90;102202.38;5040437;28;20025;-60
2021/10/08 10:15:02;;;;;;;14.90;8.65;;;;;;;13.75;37.12;102202.38;5006803;28;20218;-60
2021/10/08 10:17:49;;;;;;;12.00;7.32;;;;;;;13.78;35.72;102199.78;5006497;28;20033;-60
2021/10/08 10:20:38;;;;;;;15.13;8.63;;;;;;;13.54;37.11;102144.09;5007882;28;20022;-60
2021/10/08 10:23:24;;;;;;;14.85;8.63;;;;;;;13.82;37.35;102185.91;5010624;28;20037;-60
2021/10/08 10:26:10;;;;;;;13.38;8.05;;;;;;;13.86;37.79;102194.63;5023491;28;20029;-60
2021/10/08 10:28:57;;;;;;;10.35;8.60;;;;;;;13.92;37.93;102186.84;5024516;28;20397;-60
2021/10/08 10:31:44;;;;;;;11.93;8.80;;;;;;;13.71;36.66;102178.06;5024371;28;20057;-60
2021/10/08 10:34:36;;;;;;;12.05;8.60;;;;;;;13.73;36.35;102194.56;5023192;28;20045;-61
2021/10/08 10:37:36;;;;;;;;;;;;;;;13.73;36.31;102183.28;5023351;28;20033;-61
2021/10/08 10:40:24;;;;;;;14.45;7.78;;;;;;;13.52;38.31;102135.41;5023635;28;19916;-60
2021/10/08 10:43:18;;;;;;;13.70;8.25;;;;;;;13.84;37.95;102176.41;5022589;28;20042;-60
2021/10/08 10:52:17;;;;;;;11.63;7.05;;;;;;;13.83;36.29;102182.47;5023590;28;20029;-60
2021/10/08 10:55:07;;;;;;;11.47;7.37;;;;;;;13.71;36.06;102165.03;5021601;28;20068;-60
2021/10/08 10:57:56;;;;;;;12.95;7.63;;;;;;;13.72;36.27;102176.31;5020742;28;20442;-61
2021/10/08 11:00:45;;;;;;;10.82;7.03;;;;;;;13.42;36.06;102115.38;5021643;28;20032;-61
2021/10/08 11:03:33;;;;;;;12.20;6.45;;;;;;;13.66;33.96;102158.91;5004849;28;20232;-59
2021/10/08 11:06:20;;;;;;;10.25;6.55;;;;;;;13.73;33.99;102157.22;5021365;28;20028;-61
2021/10/08 11:09:08;;;;;;;13.48;6.68;;;;;;;13.69;34.90;102160.69;5021696;28;20219;-60
2021/10/08 11:12:28;;;;;;;12.48;6.47;;;;;;;13.71;35.21;102156.34;5021101;28;20022;-60
2021/10/08 11:15:17;;;;;;;12.95;5.97;;;;;;;13.74;36.34;102154.63;5022125;28;20068;-61
2021/10/08 11:18:04;;;;;;;10.23;6.85;;;;;;;13.71;35.85;102151.13;5021258;28;20073;-60
2021/10/08 11:20:50;;;;;;;9.30;6.50;;;;;;;13.76;35.75;102152.03;5020629;28;20030;-61
2021/10/08 11:23:38;;;;;;;10.50;6.57;;;;;;;13.75;34.69;102148.56;5021162;28;20056;-60
2021/10/08 11:26:25;;;;;;;10.32;6.45;;;;;;;13.51;35.72;102102.44;5023764;28;20033;-60
2021/10/08 11:29:12;;;;;;;12.13;6.50;;;;;;;13.74;35.80;102131.19;5025411;28;20034;-60
2021/10/08 11:32:02;;;;;;;12.80;7.32;;;;;;;13.69;37.02;102121.63;5025740;28;20097;-60
2021/10/08 11:34:53;;;;;;;15.43;7.30;;;;;;;13.44;35.05;102126.69;5035045;28;20139;-60
2021/10/08 11:37:43;;;;;;;10.73;7.40;;;;;;;13.66;35.74;102137.22;5028250;28;20034;-61
2021/10/08 11:40:44;;;;;;;12.90;7.35;;;;;;;13.68;35.28;102140.69;5025539;28;20025;-61
2021/10/08 11:43:33;;;;;;;12.50;8.13;;;;;;;13.72;36.41;102132.91;5025012;28;20045;-60
2021/10/08 11:52:17;;;;;;;17.73;7.65;;;;;;;13.49;35.36;102122.38;5013591;28;20041;-61
2021/10/08 11:55:25;;;;;;;10.18;7.63;;;;;;;13.05;35.53;102073.47;5027081;28;20032;-61
2021/10/08 11:58:12;;;;;;;14.57;7.85;;;;;;;13.43;36.77;102110.19;5025348;28;20109;-61
2021/10/08 12:00:57;;;;;;;13.68;7.95;;;;;;;13.25;36.62;102086.59;5021194;28;20020;-61
2021/10/08 12:03:43;;;;;;;12.50;7.82;;;;;;;13.51;36.69;102119.78;5037410;28;20022;-61
2021/10/08 12:06:31;;;;;;;13.35;7.65;;;;;;;13.44;36.58;102124.94;5025506;28;20025;-61
2021/10/08 12:09:21;;;;;;;16.02;7.88;;;;;;;13.44;36.21;102113.69;5025445;28;20033;-60
2021/10/08 12:12:09;;;;;;;15.13;7.90;;;;;;;13.50;36.76;102112.84;5030689;28;20096;-60
2021/10/08 12:14:55;;;;;;;14.70;8.60;;;;;;;13.53;37.16;102118.91;5033753;28;20047;-60
2021/10/08 12:17:48;;;;;;;15.15;8.32;;;;;;;13.21;37.11;102064.91;5024708;28;20201;-60
2021/10/08 12:20:34;;;;;;;17.77;8.00;;;;;;;13.50;36.00;102103.28;5024577;28;20222;-60
2021/10/08 12:23:24;;;;;;;16.38;8.27;;;;;;;13.48;35.65;102106.75;5026274;28;20026;-60
2021/10/08 12:26:11;;;;;;;14.15;7.90;;;;;;;13.41;35.55;102093.69;5025142;28;20369;-60
2021/10/08 12:28:59;;;;;;;13.52;7.85;;;;;;;13.18;36.92;102053.59;5024225;28;20025;-60
2021/10/08 12:31:56;;;;;;;11.45;7.35;;;;;;;13.41;37.16;102103.22;5025345;28;20088;-61
2021/10/08 12:34:48;;;;;;;16.58;7.47;;;;;;;13.09;37.14;102054.41;5024904;28;20033;-60
2021/10/08 12:37:34;;;;;;;10.48;7.65;;;;;;;13.46;36.44;102091.13;5024465;28;20084;-60
2021/10/08 12:40:20;;;;;;;14.75;8.85;;;;;;;13.31;35.98;102097.09;5021137;28;20075;-60
2021/10/08 12:43:19;;;;;;;12.20;7.38;;;;;;;13.11;36.40;102055.28;5023453;28;20045;-60
2021/10/08 12:46:19;;;;;;;13.38;7.65;;;;;;;13.03;37.69;102034.44;5022765;28;20097;-61
2021/10/08 12:49:06;;;;;;;9.48;6.65;;;;;;;13.35;37.76;102084.97;5024899;28;20108;-60
2021/10/08 12:51:53;;;;;;;10.20;7.38;;;;;;;13.38;36.67;102087.59;5023184;28;20326;-60
2021/10/08 12:54:40;;;;;;;11.98;7.55;;;;;;;13.37;37.70;102081.53;5023545;28;20022;-61
2021/10/08 12:57:26;;;;;;;14.75;7.55;;;;;;;13.30;38.15;102070.16;5031563;28;20046;-61
2021/10/08 13:00:12;;;;;;;13.43;8.00;;;;;;;13.30;38.29;102075.38;5023262;28;20140;-60
2021/10/08 13:02:58;;;;;;;11.95;8.18;;;;;;;13.29;38.21;102068.41;5024197;28;20118;-60